sensor_id;sensor_type;location;lat;lon;timestamp;temperature;humidity
47540;DHT22;33280;52.152;21.052;2023-06-04T00:00:26;10.50;99.90
47540;DHT22;33280;52.152;21.052;2023-06-04T00:02:53;10.40;99.90
47540;DHT22;33280;52.152;21.052;2023-06-04T00:05:20;10.50;99.90
47540;DHT22;33280;52.152;21.052;2023-06-04T00:07:49;10.40;99.90
47540;DHT22;33280;52.152;21.052;2023-06-04T00:10:16;10.40;99.90
47540;DHT22;33280;52.152;21.052;2023-06-04T00:12:43;10.30;99.90
47540;DHT22;33280;52.152;21.052;2023-06-04T00:15:10;10.30;99.90
47540;DHT22;33280;52.152;21.052;2023-06-04T00:17:37;10.30;99.90
47540;DHT22;33280;52.152;21.052;2023-06-04T00:20:04;10.30;99.90
47540;DHT22;33280;52.152;21.052;2023-06-04T00:22:31;10.20;99.90
47540;DHT22;33280;52.152;21.052;2023-06-04T00:24:58;10.20;99.90
47540;DHT22;33280;52.152;21.052;2023-06-04T00:27:25;10.20;99.90
47540;DHT22;33280;52.152;21.052;2023-06-04T00:29:52;10.20;99.90
47540;DHT22;33280;52.152;21.052;2023-06-04T00:32:19;10.10;99.90
47540;DHT22;33280;52.152;21.052;2023-06-04T00:34:54;10.10;99.90
47540;DHT22;33280;52.152;21.052;2023-06-04T00:37:22;10.00;99.90
47540;DHT22;33280;52.152;21.052;2023-06-04T00:39:49;10.00;99.90
47540;DHT22;33280;52.152;21.052;2023-06-04T00:42:17;10.00;99.90
47540;DHT22;33280;52.152;21.052;2023-06-04T00:44:44;9.90;99.90
47540;DHT22;33280;52.152;21.052;2023-06-04T00:47:12;9.90;99.90
47540;DHT22;33280;52.152;21.052;2023-06-04T00:49:39;9.80;99.90
47540;DHT22;33280;52.152;21.052;2023-06-04T00:52:09;9.80;99.90
47540;DHT22;33280;52.152;21.052;2023-06-04T00:54:37;9.70;99.90
47540;DHT22;33280;52.152;21.052;2023-06-04T00:57:05;9.70;99.90
47540;DHT22;33280;52.152;21.052;2023-06-04T00:59:35;9.70;99.90
47540;DHT22;33280;52.152;21.052;2023-06-04T01:02:16;9.60;99.90
47540;DHT22;33280;52.152;21.052;2023-06-04T01:07:27;9.50;99.90
47540;DHT22;33280;52.152;21.052;2023-06-04T01:09:55;9.50;99.90
47540;DHT22;33280;52.152;21.052;2023-06-04T01:12:22;9.40;99.90
47540;DHT22;33280;52.152;21.052;2023-06-04T01:14:49;9.50;99.90
47540;DHT22;33280;52.152;21.052;2023-06-04T01:17:34;9.40;99.90
47540;DHT22;33280;52.152;21.052;2023-06-04T01:20:22;9.30;99.90
47540;DHT22;33280;52.152;21.052;2023-06-04T01:28:03;9.30;99.90
47540;DHT22;33280;52.152;21.052;2023-06-04T01:30:33;9.20;99.90
47540;DHT22;33280;52.152;21.052;2023-06-04T01:33:01;9.30;99.90
47540;DHT22;33280;52.152;21.052;2023-06-04T01:35:29;9.20;99.90
47540;DHT22;33280;52.152;21.052;2023-06-04T01:37:58;9.30;99.90
47540;DHT22;33280;52.152;21.052;2023-06-04T01:40:25;9.30;99.90
47540;DHT22;33280;52.152;21.052;2023-06-04T01:42:53;9.20;99.90
47540;DHT22;33280;52.152;21.052;2023-06-04T01:45:22;9.20;99.90
47540;DHT22;33280;52.152;21.052;2023-06-04T01:47:49;9.20;99.90
47540;DHT22;33280;52.152;21.052;2023-06-04T01:50:17;9.20;99.90
47540;DHT22;33280;52.152;21.052;2023-06-04T01:52:45;9.20;99.90
47540;DHT22;33280;52.152;21.052;2023-06-04T01:55:14;9.30;99.90
47540;DHT22;33280;52.152;21.052;2023-06-04T01:57:45;9.30;99.90
47540;DHT22;33280;52.152;21.052;2023-06-04T02:00:13;9.20;99.90
47540;DHT22;33280;52.152;21.052;2023-06-04T02:02:43;9.20;99.90
47540;DHT22;33280;52.152;21.052;2023-06-04T02:05:10;9.30;99.90
47540;DHT22;33280;52.152;21.052;2023-06-04T02:07:38;9.20;99.90
47540;DHT22;33280;52.152;21.052;2023-06-04T02:10:08;9.20;99.90
47540;DHT22;33280;52.152;21.052;2023-06-04T02:12:37;9.30;99.90
47540;DHT22;33280;52.152;21.052;2023-06-04T02:15:05;9.30;99.90
47540;DHT22;33280;52.152;21.052;2023-06-04T02:17:32;9.30;99.90
47540;DHT22;33280;52.152;21.052;2023-06-04T02:19:59;9.30;99.90
47540;DHT22;33280;52.152;21.052;2023-06-04T02:22:27;9.30;99.90
47540;DHT22;33280;52.152;21.052;2023-06-04T02:24:54;9.30;99.90
47540;DHT22;33280;52.152;21.052;2023-06-04T02:27:21;9.20;99.90
47540;DHT22;33280;52.152;21.052;2023-06-04T02:29:48;9.20;99.90
47540;DHT22;33280;52.152;21.052;2023-06-04T02:32:16;9.20;99.90
47540;DHT22;33280;52.152;21.052;2023-06-04T02:34:43;9.20;99.90
47540;DHT22;33280;52.152;21.052;2023-06-04T02:37:11;9.20;99.90
47540;DHT22;33280;52.152;21.052;2023-06-04T02:39:38;9.30;99.90
47540;DHT22;33280;52.152;21.052;2023-06-04T02:42:05;9.30;99.90
47540;DHT22;33280;52.152;21.052;2023-06-04T02:44:34;9.30;99.90
47540;DHT22;33280;52.152;21.052;2023-06-04T02:47:01;9.30;99.90
47540;DHT22;33280;52.152;21.052;2023-06-04T02:49:29;9.20;99.90
47540;DHT22;33280;52.152;21.052;2023-06-04T02:51:55;9.20;99.90
47540;DHT22;33280;52.152;21.052;2023-06-04T02:54:22;9.30;99.90
47540;DHT22;33280;52.152;21.052;2023-06-04T02:56:49;9.20;99.90
47540;DHT22;33280;52.152;21.052;2023-06-04T02:59:16;9.20;99.90
47540;DHT22;33280;52.152;21.052;2023-06-04T03:01:43;9.30;99.90
47540;DHT22;33280;52.152;21.052;2023-06-04T03:04:11;9.30;99.90
47540;DHT22;33280;52.152;21.052;2023-06-04T03:06:44;9.30;99.90
47540;DHT22;33280;52.152;21.052;2023-06-04T03:09:13;9.40;99.90
47540;DHT22;33280;52.152;21.052;2023-06-04T03:11:40;9.30;99.90
47540;DHT22;33280;52.152;21.052;2023-06-04T03:14:07;9.40;99.90
47540;DHT22;33280;52.152;21.052;2023-06-04T03:16:34;9.30;99.90
47540;DHT22;33280;52.152;21.052;2023-06-04T03:19:01;9.30;99.90
47540;DHT22;33280;52.152;21.052;2023-06-04T03:21:28;9.30;99.90
47540;DHT22;33280;52.152;21.052;2023-06-04T03:23:56;9.30;99.90
47540;DHT22;33280;52.152;21.052;2023-06-04T03:26:23;9.30;99.90
47540;DHT22;33280;52.152;21.052;2023-06-04T03:28:50;9.30;99.90
47540;DHT22;33280;52.152;21.052;2023-06-04T03:31:22;9.30;99.90
47540;DHT22;33280;52.152;21.052;2023-06-04T03:33:49;9.30;99.90
47540;DHT22;33280;52.152;21.052;2023-06-04T03:36:16;9.40;99.90
47540;DHT22;33280;52.152;21.052;2023-06-04T03:38:45;9.50;99.90
47540;DHT22;33280;52.152;21.052;2023-06-04T03:41:12;9.40;99.90
47540;DHT22;33280;52.152;21.052;2023-06-04T03:43:40;9.50;99.90
47540;DHT22;33280;52.152;21.052;2023-06-04T03:46:07;9.40;99.90
47540;DHT22;33280;52.152;21.052;2023-06-04T03:48:34;9.50;99.90
47540;DHT22;33280;52.152;21.052;2023-06-04T03:51:01;9.50;99.90
47540;DHT22;33280;52.152;21.052;2023-06-04T03:53:28;9.60;99.90
47540;DHT22;33280;52.152;21.052;2023-06-04T03:55:55;9.70;99.90
47540;DHT22;33280;52.152;21.052;2023-06-04T03:58:22;9.80;99.90
47540;DHT22;33280;52.152;21.052;2023-06-04T04:00:49;9.80;99.90
47540;DHT22;33280;52.152;21.052;2023-06-04T04:03:16;9.90;99.90
47540;DHT22;33280;52.152;21.052;2023-06-04T04:05:44;9.90;99.90
47540;DHT22;33280;52.152;21.052;2023-06-04T04:08:11;10.00;99.90
47540;DHT22;33280;52.152;21.052;2023-06-04T04:10:38;10.00;99.90
47540;DHT22;33280;52.152;21.052;2023-06-04T04:13:05;10.10;99.90
47540;DHT22;33280;52.152;21.052;2023-06-04T04:15:32;10.30;99.90
47540;DHT22;33280;52.152;21.052;2023-06-04T04:18:00;10.40;99.90
47540;DHT22;33280;52.152;21.052;2023-06-04T04:20:28;10.50;99.90
47540;DHT22;33280;52.152;21.052;2023-06-04T04:22:55;10.60;99.90
47540;DHT22;33280;52.152;21.052;2023-06-04T04:25:23;10.70;99.90
47540;DHT22;33280;52.152;21.052;2023-06-04T04:27:50;10.70;99.90
47540;DHT22;33280;52.152;21.052;2023-06-04T04:30:17;10.80;99.90
47540;DHT22;33280;52.152;21.052;2023-06-04T04:32:44;10.80;99.90
47540;DHT22;33280;52.152;21.052;2023-06-04T04:35:17;10.80;99.90
47540;DHT22;33280;52.152;21.052;2023-06-04T04:37:45;10.90;99.90
47540;DHT22;33280;52.152;21.052;2023-06-04T04:40:12;10.90;99.90
47540;DHT22;33280;52.152;21.052;2023-06-04T04:42:40;11.00;99.90
47540;DHT22;33280;52.152;21.052;2023-06-04T04:45:08;11.10;99.90
47540;DHT22;33280;52.152;21.052;2023-06-04T04:47:36;11.10;99.90
47540;DHT22;33280;52.152;21.052;2023-06-04T04:50:04;11.20;99.90
47540;DHT22;33280;52.152;21.052;2023-06-04T04:52:31;11.30;99.90
47540;DHT22;33280;52.152;21.052;2023-06-04T04:54:58;11.40;99.90
47540;DHT22;33280;52.152;21.052;2023-06-04T04:57:25;11.40;99.90
47540;DHT22;33280;52.152;21.052;2023-06-04T04:59:52;11.50;99.90
47540;DHT22;33280;52.152;21.052;2023-06-04T05:02:19;11.50;99.90
47540;DHT22;33280;52.152;21.052;2023-06-04T05:04:46;11.80;99.90
47540;DHT22;33280;52.152;21.052;2023-06-04T05:07:13;11.80;99.90
47540;DHT22;33280;52.152;21.052;2023-06-04T05:09:40;11.90;99.90
47540;DHT22;33280;52.152;21.052;2023-06-04T05:12:07;12.00;99.90
47540;DHT22;33280;52.152;21.052;2023-06-04T05:14:35;12.10;99.90
47540;DHT22;33280;52.152;21.052;2023-06-04T05:17:03;12.10;99.90
47540;DHT22;33280;52.152;21.052;2023-06-04T05:19:30;12.20;99.90
47540;DHT22;33280;52.152;21.052;2023-06-04T05:21:59;12.30;99.90
47540;DHT22;33280;52.152;21.052;2023-06-04T05:24:27;12.40;99.90
47540;DHT22;33280;52.152;21.052;2023-06-04T05:26:56;12.50;99.90
47540;DHT22;33280;52.152;21.052;2023-06-04T05:29:23;12.60;99.90
47540;DHT22;33280;52.152;21.052;2023-06-04T05:31:50;12.60;99.90
47540;DHT22;33280;52.152;21.052;2023-06-04T05:34:17;12.80;99.90
47540;DHT22;33280;52.152;21.052;2023-06-04T05:36:44;12.90;99.90
47540;DHT22;33280;52.152;21.052;2023-06-04T05:39:12;12.90;99.90
47540;DHT22;33280;52.152;21.052;2023-06-04T05:41:39;13.00;99.90
47540;DHT22;33280;52.152;21.052;2023-06-04T05:44:07;13.20;99.90
47540;DHT22;33280;52.152;21.052;2023-06-04T05:46:34;13.20;99.90
47540;DHT22;33280;52.152;21.052;2023-06-04T05:49:01;13.30;99.90
47540;DHT22;33280;52.152;21.052;2023-06-04T05:51:28;13.50;99.90
47540;DHT22;33280;52.152;21.052;2023-06-04T05:53:55;13.60;99.90
47540;DHT22;33280;52.152;21.052;2023-06-04T05:56:22;13.70;99.90
47540;DHT22;33280;52.152;21.052;2023-06-04T05:58:52;13.90;99.90
47540;DHT22;33280;52.152;21.052;2023-06-04T06:01:19;14.00;99.90
47540;DHT22;33280;52.152;21.052;2023-06-04T06:03:46;14.10;99.90
47540;DHT22;33280;52.152;21.052;2023-06-04T06:06:13;14.10;99.90
47540;DHT22;33280;52.152;21.052;2023-06-04T06:08:40;14.30;99.90
47540;DHT22;33280;52.152;21.052;2023-06-04T06:11:08;14.50;99.90
47540;DHT22;33280;52.152;21.052;2023-06-04T06:13:37;14.50;99.90
47540;DHT22;33280;52.152;21.052;2023-06-04T06:16:04;14.60;99.90
47540;DHT22;33280;52.152;21.052;2023-06-04T06:18:31;14.60;99.90
47540;DHT22;33280;52.152;21.052;2023-06-04T06:20:59;14.70;99.90
47540;DHT22;33280;52.152;21.052;2023-06-04T06:23:26;14.70;99.90
47540;DHT22;33280;52.152;21.052;2023-06-04T06:25:53;14.70;99.90
47540;DHT22;33280;52.152;21.052;2023-06-04T06:28:20;14.90;99.90
47540;DHT22;33280;52.152;21.052;2023-06-04T06:30:47;15.00;99.90
47540;DHT22;33280;52.152;21.052;2023-06-04T06:33:14;15.10;99.90
47540;DHT22;33280;52.152;21.052;2023-06-04T06:35:42;15.20;99.90
47540;DHT22;33280;52.152;21.052;2023-06-04T06:38:09;15.20;99.90
47540;DHT22;33280;52.152;21.052;2023-06-04T06:40:36;15.20;99.90
47540;DHT22;33280;52.152;21.052;2023-06-04T06:43:03;15.30;99.90
47540;DHT22;33280;52.152;21.052;2023-06-04T06:45:30;15.50;99.90
47540;DHT22;33280;52.152;21.052;2023-06-04T06:47:57;15.60;99.90
47540;DHT22;33280;52.152;21.052;2023-06-04T06:50:24;15.80;99.90
47540;DHT22;33280;52.152;21.052;2023-06-04T06:52:51;15.80;99.90
47540;DHT22;33280;52.152;21.052;2023-06-04T06:55:18;15.80;99.60
47540;DHT22;33280;52.152;21.052;2023-06-04T06:57:45;16.00;99.90
47540;DHT22;33280;52.152;21.052;2023-06-04T07:00:12;16.10;99.90
47540;DHT22;33280;52.152;21.052;2023-06-04T07:02:39;16.30;99.20
47540;DHT22;33280;52.152;21.052;2023-06-04T07:05:07;16.20;98.20
47540;DHT22;33280;52.152;21.052;2023-06-04T07:07:34;16.40;98.20
47540;DHT22;33280;52.152;21.052;2023-06-04T07:10:01;16.40;98.00
47540;DHT22;33280;52.152;21.052;2023-06-04T07:12:30;16.50;96.70
47540;DHT22;33280;52.152;21.052;2023-06-04T07:14:57;16.60;97.00
47540;DHT22;33280;52.152;21.052;2023-06-04T07:17:24;16.70;95.90
47540;DHT22;33280;52.152;21.052;2023-06-04T07:19:51;16.80;96.30
47540;DHT22;33280;52.152;21.052;2023-06-04T07:22:18;16.90;94.80
47540;DHT22;33280;52.152;21.052;2023-06-04T07:24:44;16.90;95.90
47540;DHT22;33280;52.152;21.052;2023-06-04T07:27:12;17.00;95.60
47540;DHT22;33280;52.152;21.052;2023-06-04T07:29:42;17.10;95.20
47540;DHT22;33280;52.152;21.052;2023-06-04T07:32:10;17.10;93.70
47540;DHT22;33280;52.152;21.052;2023-06-04T07:34:40;17.20;93.10
47540;DHT22;33280;52.152;21.052;2023-06-04T07:37:07;17.30;93.60
47540;DHT22;33280;52.152;21.052;2023-06-04T07:39:36;17.40;90.80
47540;DHT22;33280;52.152;21.052;2023-06-04T07:42:04;17.50;90.40
47540;DHT22;33280;52.152;21.052;2023-06-04T07:44:33;17.60;90.20
47540;DHT22;33280;52.152;21.052;2023-06-04T07:47:00;17.40;90.30
47540;DHT22;33280;52.152;21.052;2023-06-04T07:49:27;17.50;90.70
47540;DHT22;33280;52.152;21.052;2023-06-04T07:51:54;17.60;90.00
47540;DHT22;33280;52.152;21.052;2023-06-04T07:54:21;17.50;88.00
47540;DHT22;33280;52.152;21.052;2023-06-04T07:56:48;17.40;89.70
47540;DHT22;33280;52.152;21.052;2023-06-04T07:59:15;17.60;90.40
47540;DHT22;33280;52.152;21.052;2023-06-04T08:01:42;17.70;87.70
47540;DHT22;33280;52.152;21.052;2023-06-04T08:04:09;17.50;87.80
47540;DHT22;33280;52.152;21.052;2023-06-04T08:06:38;17.70;90.20
47540;DHT22;33280;52.152;21.052;2023-06-04T08:09:06;17.80;88.00
47540;DHT22;33280;52.152;21.052;2023-06-04T08:11:36;17.70;88.60
47540;DHT22;33280;52.152;21.052;2023-06-04T08:14:03;17.60;86.50
47540;DHT22;33280;52.152;21.052;2023-06-04T08:16:31;17.70;86.30
47540;DHT22;33280;52.152;21.052;2023-06-04T08:18:59;17.60;86.00
47540;DHT22;33280;52.152;21.052;2023-06-04T08:21:27;17.90;85.40
47540;DHT22;33280;52.152;21.052;2023-06-04T08:23:55;18.70;84.50
47540;DHT22;33280;52.152;21.052;2023-06-04T08:26:22;19.00;80.80
47540;DHT22;33280;52.152;21.052;2023-06-04T08:28:50;19.40;79.00
47540;DHT22;33280;52.152;21.052;2023-06-04T08:31:18;20.10;79.30
47540;DHT22;33280;52.152;21.052;2023-06-04T08:33:46;20.90;77.80
47540;DHT22;33280;52.152;21.052;2023-06-04T08:36:13;21.40;73.60
47540;DHT22;33280;52.152;21.052;2023-06-04T08:38:41;21.80;70.30
47540;DHT22;33280;52.152;21.052;2023-06-04T08:41:38;22.40;68.90
47540;DHT22;33280;52.152;21.052;2023-06-04T08:44:07;22.90;66.30
47540;DHT22;33280;52.152;21.052;2023-06-04T08:46:39;23.20;65.10
47540;DHT22;33280;52.152;21.052;2023-06-04T08:49:07;23.60;63.90
47540;DHT22;33280;52.152;21.052;2023-06-04T08:51:37;23.90;65.00
47540;DHT22;33280;52.152;21.052;2023-06-04T08:54:05;24.30;60.40
47540;DHT22;33280;52.152;21.052;2023-06-04T08:56:35;24.10;58.40
47540;DHT22;33280;52.152;21.052;2023-06-04T08:59:04;24.10;59.50
47540;DHT22;33280;52.152;21.052;2023-06-04T09:01:33;24.30;57.90
47540;DHT22;33280;52.152;21.052;2023-06-04T09:04:03;24.30;57.30
47540;DHT22;33280;52.152;21.052;2023-06-04T09:06:32;24.20;56.30
47540;DHT22;33280;52.152;21.052;2023-06-04T09:09:03;23.20;58.30
47540;DHT22;33280;52.152;21.052;2023-06-04T09:11:51;22.80;60.00
47540;DHT22;33280;52.152;21.052;2023-06-04T09:14:18;23.00;60.60
47540;DHT22;33280;52.152;21.052;2023-06-04T09:16:53;23.40;61.10
47540;DHT22;33280;52.152;21.052;2023-06-04T09:19:22;23.80;58.50
47540;DHT22;33280;52.152;21.052;2023-06-04T09:21:54;24.00;58.10
47540;DHT22;33280;52.152;21.052;2023-06-04T09:24:23;24.50;56.60
47540;DHT22;33280;52.152;21.052;2023-06-04T09:26:51;24.40;57.90
47540;DHT22;33280;52.152;21.052;2023-06-04T09:29:18;24.50;56.10
47540;DHT22;33280;52.152;21.052;2023-06-04T09:31:46;24.40;55.30
47540;DHT22;33280;52.152;21.052;2023-06-04T09:34:14;24.50;55.00
47540;DHT22;33280;52.152;21.052;2023-06-04T09:36:41;24.60;54.50
47540;DHT22;33280;52.152;21.052;2023-06-04T09:39:16;24.70;54.00
47540;DHT22;33280;52.152;21.052;2023-06-04T09:41:43;24.80;54.00
47540;DHT22;33280;52.152;21.052;2023-06-04T09:44:10;24.80;54.90
47540;DHT22;33280;52.152;21.052;2023-06-04T09:46:39;25.00;53.90
47540;DHT22;33280;52.152;21.052;2023-06-04T09:49:06;25.20;53.50
47540;DHT22;33280;52.152;21.052;2023-06-04T09:51:33;25.30;54.50
47540;DHT22;33280;52.152;21.052;2023-06-04T09:54:03;25.40;51.30
47540;DHT22;33280;52.152;21.052;2023-06-04T09:56:39;25.70;52.90
47540;DHT22;33280;52.152;21.052;2023-06-04T09:59:09;25.70;51.60
47540;DHT22;33280;52.152;21.052;2023-06-04T10:01:39;25.60;50.00
47540;DHT22;33280;52.152;21.052;2023-06-04T10:04:09;25.80;50.40
47540;DHT22;33280;52.152;21.052;2023-06-04T10:06:39;26.20;50.30
47540;DHT22;33280;52.152;21.052;2023-06-04T10:09:08;26.70;51.20
47540;DHT22;33280;52.152;21.052;2023-06-04T10:11:50;27.00;50.80
47540;DHT22;33280;52.152;21.052;2023-06-04T10:14:22;27.50;51.50
47540;DHT22;33280;52.152;21.052;2023-06-04T10:16:52;27.50;48.30
47540;DHT22;33280;52.152;21.052;2023-06-04T10:19:20;26.80;48.60
47540;DHT22;33280;52.152;21.052;2023-06-04T10:21:47;27.10;49.50
47540;DHT22;33280;52.152;21.052;2023-06-04T10:24:15;26.90;47.80
47540;DHT22;33280;52.152;21.052;2023-06-04T10:26:43;27.00;48.90
47540;DHT22;33280;52.152;21.052;2023-06-04T10:29:10;27.60;49.10
47540;DHT22;33280;52.152;21.052;2023-06-04T10:31:38;28.10;47.50
47540;DHT22;33280;52.152;21.052;2023-06-04T10:34:05;27.80;46.30
47540;DHT22;33280;52.152;21.052;2023-06-04T10:36:42;28.00;46.20
47540;DHT22;33280;52.152;21.052;2023-06-04T10:39:10;27.90;45.30
47540;DHT22;33280;52.152;21.052;2023-06-04T10:41:37;27.60;45.40
47540;DHT22;33280;52.152;21.052;2023-06-04T10:44:04;28.00;45.60
47540;DHT22;33280;52.152;21.052;2023-06-04T10:46:39;28.30;45.10
47540;DHT22;33280;52.152;21.052;2023-06-04T10:49:09;28.40;45.20
47540;DHT22;33280;52.152;21.052;2023-06-04T10:51:37;28.60;44.40
47540;DHT22;33280;52.152;21.052;2023-06-04T10:54:04;28.30;43.60
47540;DHT22;33280;52.152;21.052;2023-06-04T10:56:33;27.20;43.70
47540;DHT22;33280;52.152;21.052;2023-06-04T10:59:13;26.80;45.30
47540;DHT22;33280;52.152;21.052;2023-06-04T11:01:40;27.50;45.00
47540;DHT22;33280;52.152;21.052;2023-06-04T11:04:24;27.80;42.20
47540;DHT22;33280;52.152;21.052;2023-06-04T11:07:04;28.50;44.30
47540;DHT22;33280;52.152;21.052;2023-06-04T11:09:37;28.60;42.50
47540;DHT22;33280;52.152;21.052;2023-06-04T11:12:05;28.90;42.60
47540;DHT22;33280;52.152;21.052;2023-06-04T11:14:32;29.30;42.10
47540;DHT22;33280;52.152;21.052;2023-06-04T11:17:12;29.70;41.90
47540;DHT22;33280;52.152;21.052;2023-06-04T11:19:39;30.00;41.00
47540;DHT22;33280;52.152;21.052;2023-06-04T11:22:10;30.60;41.90
47540;DHT22;33280;52.152;21.052;2023-06-04T11:24:38;30.70;39.70
47540;DHT22;33280;52.152;21.052;2023-06-04T11:27:05;30.60;49.40
47540;DHT22;33280;52.152;21.052;2023-06-04T11:29:49;30.50;45.40
47540;DHT22;33280;52.152;21.052;2023-06-04T11:32:23;30.30;43.90
47540;DHT22;33280;52.152;21.052;2023-06-04T11:34:51;29.80;46.00
47540;DHT22;33280;52.152;21.052;2023-06-04T11:37:18;29.90;46.00
47540;DHT22;33280;52.152;21.052;2023-06-04T11:39:45;29.80;45.40
47540;DHT22;33280;52.152;21.052;2023-06-04T11:42:12;30.00;44.80
47540;DHT22;33280;52.152;21.052;2023-06-04T11:44:39;30.10;45.30
47540;DHT22;33280;52.152;21.052;2023-06-04T11:47:11;29.90;49.40
47540;DHT22;33280;52.152;21.052;2023-06-04T11:49:39;30.10;47.50
47540;DHT22;33280;52.152;21.052;2023-06-04T11:52:06;30.40;47.20
47540;DHT22;33280;52.152;21.052;2023-06-04T11:54:34;30.30;46.70
47540;DHT22;33280;52.152;21.052;2023-06-04T11:57:05;30.70;45.60
47540;DHT22;33280;52.152;21.052;2023-06-04T11:59:32;30.50;50.00
47540;DHT22;33280;52.152;21.052;2023-06-04T12:01:59;30.50;48.20
47540;DHT22;33280;52.152;21.052;2023-06-04T12:04:30;30.70;47.40
47540;DHT22;33280;52.152;21.052;2023-06-04T12:07:00;30.90;45.90
47540;DHT22;33280;52.152;21.052;2023-06-04T12:09:30;31.10;46.80
47540;DHT22;33280;52.152;21.052;2023-06-04T12:14:27;31.10;47.40
47540;DHT22;33280;52.152;21.052;2023-06-04T12:17:00;31.10;44.80
47540;DHT22;33280;52.152;21.052;2023-06-04T12:19:27;30.80;44.10
47540;DHT22;33280;52.152;21.052;2023-06-04T12:22:01;31.00;46.10
47540;DHT22;33280;52.152;21.052;2023-06-04T12:24:29;31.30;47.30
47540;DHT22;33280;52.152;21.052;2023-06-04T12:27:09;31.40;46.40
47540;DHT22;33280;52.152;21.052;2023-06-04T12:29:36;31.30;45.10
47540;DHT22;33280;52.152;21.052;2023-06-04T12:34:31;31.00;43.90
47540;DHT22;33280;52.152;21.052;2023-06-04T12:36:58;30.70;41.40
47540;DHT22;33280;52.152;21.052;2023-06-04T12:39:25;30.60;41.90
47540;DHT22;33280;52.152;21.052;2023-06-04T12:41:52;30.60;44.60
47540;DHT22;33280;52.152;21.052;2023-06-04T12:44:19;31.00;45.30
47540;DHT22;33280;52.152;21.052;2023-06-04T12:46:47;31.20;43.60
47540;DHT22;33280;52.152;21.052;2023-06-04T12:49:14;31.40;45.00
47540;DHT22;33280;52.152;21.052;2023-06-04T12:51:42;31.70;43.70
47540;DHT22;33280;52.152;21.052;2023-06-04T12:54:09;31.80;44.50
47540;DHT22;33280;52.152;21.052;2023-06-04T12:56:36;31.90;42.60
47540;DHT22;33280;52.152;21.052;2023-06-04T12:59:03;31.80;43.00
47540;DHT22;33280;52.152;21.052;2023-06-04T13:01:30;32.10;43.10
47540;DHT22;33280;52.152;21.052;2023-06-04T13:03:58;31.80;43.80
47540;DHT22;33280;52.152;21.052;2023-06-04T13:06:25;31.60;41.20
47540;DHT22;33280;52.152;21.052;2023-06-04T13:08:52;31.70;41.80
47540;DHT22;33280;52.152;21.052;2023-06-04T13:11:19;31.80;41.80
47540;DHT22;33280;52.152;21.052;2023-06-04T13:13:46;31.90;42.10
47540;DHT22;33280;52.152;21.052;2023-06-04T13:16:13;31.60;41.70
47540;DHT22;33280;52.152;21.052;2023-06-04T13:18:41;30.90;39.90
47540;DHT22;33280;52.152;21.052;2023-06-04T13:21:08;30.40;43.30
47540;DHT22;33280;52.152;21.052;2023-06-04T13:23:35;30.60;42.70
47540;DHT22;33280;52.152;21.052;2023-06-04T13:26:17;30.70;41.10
47540;DHT22;33280;52.152;21.052;2023-06-04T13:28:44;30.90;40.70
47540;DHT22;33280;52.152;21.052;2023-06-04T13:31:12;31.30;40.50
47540;DHT22;33280;52.152;21.052;2023-06-04T13:33:39;31.50;41.00
47540;DHT22;33280;52.152;21.052;2023-06-04T13:36:06;31.60;41.40
47540;DHT22;33280;52.152;21.052;2023-06-04T13:38:33;32.00;38.20
47540;DHT22;33280;52.152;21.052;2023-06-04T13:41:00;31.80;48.90
47540;DHT22;33280;52.152;21.052;2023-06-04T13:43:27;31.50;46.70
47540;DHT22;33280;52.152;21.052;2023-06-04T13:45:54;31.00;49.40
47540;DHT22;33280;52.152;21.052;2023-06-04T13:48:21;30.50;46.50
47540;DHT22;33280;52.152;21.052;2023-06-04T13:50:48;30.30;45.70
47540;DHT22;33280;52.152;21.052;2023-06-04T13:53:15;30.20;48.80
47540;DHT22;33280;52.152;21.052;2023-06-04T13:55:42;30.20;49.50
47540;DHT22;33280;52.152;21.052;2023-06-04T13:58:09;29.90;47.70
47540;DHT22;33280;52.152;21.052;2023-06-04T14:00:36;29.60;49.10
47540;DHT22;33280;52.152;21.052;2023-06-04T14:03:03;29.40;49.20
47540;DHT22;33280;52.152;21.052;2023-06-04T14:05:31;29.70;50.60
47540;DHT22;33280;52.152;21.052;2023-06-04T14:07:58;29.70;48.80
47540;DHT22;33280;52.152;21.052;2023-06-04T14:10:25;29.90;48.20
47540;DHT22;33280;52.152;21.052;2023-06-04T14:12:52;30.10;48.10
47540;DHT22;33280;52.152;21.052;2023-06-04T14:15:19;29.90;42.80
47540;DHT22;33280;52.152;21.052;2023-06-04T14:17:47;29.20;43.80
47540;DHT22;33280;52.152;21.052;2023-06-04T14:20:14;28.50;44.00
47540;DHT22;33280;52.152;21.052;2023-06-04T14:22:41;28.10;45.10
47540;DHT22;33280;52.152;21.052;2023-06-04T14:25:09;28.20;46.60
47540;DHT22;33280;52.152;21.052;2023-06-04T14:27:36;28.00;47.20
47540;DHT22;33280;52.152;21.052;2023-06-04T14:30:04;27.80;44.80
47540;DHT22;33280;52.152;21.052;2023-06-04T14:32:32;27.90;48.00
47540;DHT22;33280;52.152;21.052;2023-06-04T14:35:00;28.50;47.80
47540;DHT22;33280;52.152;21.052;2023-06-04T14:37:27;28.60;47.70
47540;DHT22;33280;52.152;21.052;2023-06-04T14:39:54;28.30;47.50
47540;DHT22;33280;52.152;21.052;2023-06-04T14:42:21;27.90;48.30
47540;DHT22;33280;52.152;21.052;2023-06-04T14:44:48;27.50;46.30
47540;DHT22;33280;52.152;21.052;2023-06-04T14:47:15;27.00;44.40
47540;DHT22;33280;52.152;21.052;2023-06-04T14:49:42;27.10;46.70
47540;DHT22;33280;52.152;21.052;2023-06-04T14:52:09;27.50;47.10
47540;DHT22;33280;52.152;21.052;2023-06-04T14:54:36;27.80;45.80
47540;DHT22;33280;52.152;21.052;2023-06-04T14:57:04;28.40;46.50
47540;DHT22;33280;52.152;21.052;2023-06-04T14:59:31;28.80;45.80
47540;DHT22;33280;52.152;21.052;2023-06-04T15:01:58;29.20;44.80
47540;DHT22;33280;52.152;21.052;2023-06-04T15:04:25;29.40;42.00
47540;DHT22;33280;52.152;21.052;2023-06-04T15:06:52;29.40;43.30
47540;DHT22;33280;52.152;21.052;2023-06-04T15:09:19;29.60;43.20
47540;DHT22;33280;52.152;21.052;2023-06-04T15:11:46;29.70;43.90
47540;DHT22;33280;52.152;21.052;2023-06-04T15:14:13;29.70;43.20
47540;DHT22;33280;52.152;21.052;2023-06-04T15:16:40;30.00;42.70
47540;DHT22;33280;52.152;21.052;2023-06-04T15:19:09;30.00;41.20
47540;DHT22;33280;52.152;21.052;2023-06-04T15:21:36;29.90;40.80
47540;DHT22;33280;52.152;21.052;2023-06-04T15:24:03;30.00;42.20
47540;DHT22;33280;52.152;21.052;2023-06-04T15:26:30;30.00;40.70
47540;DHT22;33280;52.152;21.052;2023-06-04T15:28:57;30.60;43.30
47540;DHT22;33280;52.152;21.052;2023-06-04T15:31:24;30.70;42.90
47540;DHT22;33280;52.152;21.052;2023-06-04T15:33:51;30.70;42.80
47540;DHT22;33280;52.152;21.052;2023-06-04T15:36:18;31.00;43.80
47540;DHT22;33280;52.152;21.052;2023-06-04T15:38:48;31.00;40.50